CFG621 LPFR-EDDF
Flight info
| Callsign | CFG621 |
|---|---|
| Flight time | N/A |
| Altitude | 40000 |
| Route | ELVAR DCT BARDI DCT ZMR DCT NUBLO DCT RONSI DCT DELOG DCT YURZI UL14 TEPRA UN867 MOKOR UN741 NTS DCT PIWIZ DCT TSU UN858 OQQAL DCT RANUX/N0471F390 DCT VALEK DCT LUTAX UM163 DIK T856 NIVNU T847 IMCOM IMCOM1D |
| Aircraft | A333/H-SDE3GHIJ2J3J5M1RVWXY/LB2D1 |
Departure
| Time | 2026-05-07 21:13 |
|---|---|
| Airport | Faro - Gago Coutinho International Airport (LPFR) |
Arrival
| Time | N/A |
|---|---|
| Airport | Frankfurt Main Airport (EDDF) |
| Time | Latitude | Longitude | Altitude | Speed | Heading |
|---|---|---|---|---|---|
| 2026-05-07 20:14 | 37.01912 | -7.96849 | 30 ft | 0 kts | 11° |
| 2026-05-07 20:53 | 37.01898 | -7.96853 | 30 ft | 2 kts | 11° |
| 2026-05-07 20:53 | 37.01883 | -7.96856 | 30 ft | 2 kts | 11° |
| 2026-05-07 20:54 | 37.01868 | -7.96860 | 30 ft | 2 kts | 11° |
| 2026-05-07 20:54 | 37.01854 | -7.96863 | 30 ft | 2 kts | 11° |
| 2026-05-07 20:54 | 37.01839 | -7.96867 | 30 ft | 2 kts | 11° |
| 2026-05-07 20:54 | 37.01826 | -7.96870 | 30 ft | 0 kts | 11° |
| 2026-05-07 21:00 | 37.01814 | -7.96875 | 30 ft | 2 kts | 43° |
| 2026-05-07 21:01 | 37.01805 | -7.96890 | 29 ft | 2 kts | 73° |
| 2026-05-07 21:01 | 37.01804 | -7.96908 | 29 ft | 2 kts | 102° |
| 2026-05-07 21:01 | 37.01807 | -7.96926 | 29 ft | 2 kts | 101° |
| 2026-05-07 21:01 | 37.01809 | -7.96941 | 29 ft | 0 kts | 99° |
| 2026-05-07 21:06 | 37.01781 | -7.96906 | 29 ft | 11 kts | 159° |
| 2026-05-07 21:07 | 37.01706 | -7.96903 | 27 ft | 4 kts | 169° |
| 2026-05-07 21:07 | 37.01689 | -7.96888 | 27 ft | 4 kts | 135° |
| 2026-05-07 21:07 | 37.01657 | -7.96800 | 27 ft | 15 kts | 104° |
| 2026-05-07 21:07 | 37.01630 | -7.96634 | 27 ft | 23 kts | 101° |
| 2026-05-07 21:08 | 37.01600 | -7.96411 | 27 ft | 27 kts | 99° |
| 2026-05-07 21:08 | 37.01566 | -7.96169 | 23 ft | 29 kts | 100° |
| 2026-05-07 21:08 | 37.01535 | -7.95955 | 22 ft | 15 kts | 98° |
| 2026-05-07 21:08 | 37.01490 | -7.95856 | 20 ft | 12 kts | 154° |
| 2026-05-07 21:09 | 37.01456 | -7.95849 | 20 ft | 0 kts | 180° |
| 2026-05-07 21:11 | 37.01447 | -7.95849 | 21 ft | 6 kts | 181° |
| 2026-05-07 21:11 | 37.01366 | -7.95868 | 21 ft | 13 kts | 213° |
| 2026-05-07 21:11 | 37.01352 | -7.95916 | 22 ft | 0 kts | 271° |
| 2026-05-07 21:12 | 37.01353 | -7.95937 | 22 ft | 14 kts | 274° |
| 2026-05-07 21:12 | 37.01420 | -7.96431 | 26 ft | 101 kts | 280° |
| 2026-05-07 21:13 | 37.01584 | -7.97618 | 116 ft | 164 kts | 279° |
| 2026-05-07 21:13 | 37.01698 | -7.98972 | 1189 ft | 155 kts | 274° |
| 2026-05-07 21:13 | 37.01734 | -8.00261 | 2240 ft | 153 kts | 274° |
| 2026-05-07 21:13 | 37.01749 | -8.01564 | 3177 ft | 158 kts | 279° |
| 2026-05-07 21:14 | 37.02009 | -8.02912 | 4025 ft | 171 kts | 290° |
| 2026-05-07 21:14 | 37.02425 | -8.04351 | 4912 ft | 190 kts | 291° |
| 2026-05-07 21:14 | 37.02971 | -8.05930 | 5959 ft | 207 kts | 292° |
| 2026-05-07 21:14 | 37.03660 | -8.07511 | 7093 ft | 218 kts | 313° |
| 2026-05-07 21:15 | 37.04930 | -8.08459 | 8228 ft | 225 kts | 348° |
| 2026-05-07 21:15 | 37.06447 | -8.08356 | 9360 ft | 224 kts | 24° |
| 2026-05-07 21:15 | 37.07735 | -8.07250 | 9999 ft | 243 kts | 49° |
| 2026-05-07 21:15 | 37.09020 | -8.05545 | 9967 ft | 298 kts | 49° |
| 2026-05-07 21:16 | 37.10677 | -8.03641 | 9993 ft | 352 kts | 36° |
| 2026-05-07 21:16 | 37.13089 | -8.02327 | 10133 ft | 401 kts | 16° |
| 2026-05-07 21:16 | 37.15812 | -8.01382 | 11127 ft | 402 kts | 16° |
| 2026-05-07 21:16 | 37.18393 | -8.00421 | 11506 ft | 372 kts | 18° |
| 2026-05-07 21:17 | 37.20784 | -7.99523 | 11791 ft | 347 kts | 17° |
| 2026-05-07 21:17 | 37.23100 | -7.98655 | 12435 ft | 348 kts | 17° |
| 2026-05-07 21:17 | 37.25376 | -7.97806 | 13558 ft | 337 kts | 17° |
| 2026-05-07 21:17 | 37.27591 | -7.96978 | 14387 ft | 337 kts | 17° |
| 2026-05-07 21:18 | 37.29852 | -7.96133 | 14952 ft | 345 kts | 17° |
| 2026-05-07 21:18 | 37.32181 | -7.95263 | 15601 ft | 349 kts | 17° |
| 2026-05-07 21:18 | 37.34490 | -7.94398 | 16200 ft | 354 kts | 17° |
| 2026-05-07 21:18 | 37.36861 | -7.93512 | 16809 ft | 359 kts | 17° |
| 2026-05-07 21:19 | 37.39294 | -7.92599 | 17401 ft | 364 kts | 16° |
| 2026-05-07 21:19 | 37.41737 | -7.91684 | 17952 ft | 370 kts | 16° |
| 2026-05-07 21:19 | 37.44194 | -7.90775 | 18556 ft | 373 kts | 13° |
| 2026-05-07 21:19 | 37.46653 | -7.89706 | 19116 ft | 376 kts | 29° |
| 2026-05-07 21:20 | 37.48774 | -7.87751 | 19692 ft | 377 kts | 40° |
| 2026-05-07 21:20 | 37.50881 | -7.85809 | 20238 ft | 380 kts | 36° |
| 2026-05-07 21:20 | 37.53041 | -7.83892 | 20780 ft | 383 kts | 35° |
| 2026-05-07 21:20 | 37.55220 | -7.81964 | 21263 ft | 387 kts | 35° |
| 2026-05-07 21:21 | 37.57433 | -7.80013 | 21795 ft | 390 kts | 34° |
| 2026-05-07 21:21 | 37.59664 | -7.78043 | 22293 ft | 393 kts | 34° |
| 2026-05-07 21:21 | 37.61908 | -7.76061 | 22779 ft | 396 kts | 34° |
| 2026-05-07 21:21 | 37.64148 | -7.74084 | 23268 ft | 398 kts | 34° |
| 2026-05-07 21:22 | 37.66414 | -7.72082 | 23779 ft | 400 kts | 34° |
| 2026-05-07 21:22 | 37.68705 | -7.70058 | 24223 ft | 405 kts | 34° |
| 2026-05-07 21:22 | 37.71015 | -7.68011 | 24747 ft | 406 kts | 34° |
| 2026-05-07 21:22 | 37.73320 | -7.65971 | 25259 ft | 408 kts | 34° |
| 2026-05-07 21:23 | 37.75665 | -7.63890 | 25747 ft | 411 kts | 34° |
| 2026-05-07 21:23 | 37.77998 | -7.61823 | 26244 ft | 414 kts | 34° |
| 2026-05-07 21:23 | 37.80351 | -7.59731 | 26759 ft | 416 kts | 34° |
| 2026-05-07 21:23 | 37.82732 | -7.57613 | 27157 ft | 420 kts | 34° |
| 2026-05-07 21:24 | 37.85133 | -7.55481 | 27648 ft | 423 kts | 34° |
| 2026-05-07 21:24 | 37.87540 | -7.53338 | 28158 ft | 424 kts | 34° |
| 2026-05-07 21:24 | 37.89947 | -7.51195 | 28599 ft | 427 kts | 34° |
| 2026-05-07 21:24 | 37.92375 | -7.49029 | 29007 ft | 431 kts | 34° |
| 2026-05-07 21:25 | 37.94851 | -7.46820 | 29466 ft | 434 kts | 34° |
| 2026-05-07 21:25 | 37.97304 | -7.44628 | 29914 ft | 436 kts | 34° |
| 2026-05-07 21:25 | 37.99783 | -7.42409 | 30359 ft | 439 kts | 34° |
| 2026-05-07 21:25 | 38.02350 | -7.40117 | 30693 ft | 445 kts | 34° |
| 2026-05-07 21:26 | 38.04917 | -7.37818 | 31152 ft | 447 kts | 34° |
| 2026-05-07 21:26 | 38.07443 | -7.35552 | 31558 ft | 450 kts | 34° |
| 2026-05-07 21:26 | 38.10031 | -7.33233 | 31861 ft | 455 kts | 34° |
| 2026-05-07 21:26 | 38.12645 | -7.30885 | 32260 ft | 458 kts | 34° |
| 2026-05-07 21:27 | 38.15238 | -7.28555 | 32640 ft | 460 kts | 34° |
| 2026-05-07 21:27 | 38.17866 | -7.26192 | 32942 ft | 464 kts | 34° |
| 2026-05-07 21:27 | 38.20485 | -7.23832 | 33259 ft | 467 kts | 34° |
| 2026-05-07 21:27 | 38.23156 | -7.21427 | 33680 ft | 469 kts | 33° |
| 2026-05-07 21:28 | 38.25819 | -7.19027 | 33967 ft | 472 kts | 34° |
| 2026-05-07 21:28 | 38.28515 | -7.16592 | 34294 ft | 475 kts | 33° |
| 2026-05-07 21:28 | 38.31180 | -7.14184 | 34699 ft | 477 kts | 33° |
| 2026-05-07 21:28 | 38.33926 | -7.11704 | 35002 ft | 481 kts | 34° |
| 2026-05-07 21:29 | 38.36647 | -7.09240 | 35161 ft | 484 kts | 34° |
| 2026-05-07 21:29 | 38.39375 | -7.06765 | 35495 ft | 484 kts | 33° |
| 2026-05-07 21:29 | 38.42106 | -7.04289 | 35762 ft | 487 kts | 33° |
| 2026-05-07 21:29 | 38.44895 | -7.01760 | 35930 ft | 492 kts | 33° |
| 2026-05-07 21:30 | 38.47680 | -6.99230 | 36261 ft | 492 kts | 33° |
| 2026-05-07 21:30 | 38.50442 | -6.96716 | 36559 ft | 494 kts | 33° |
| 2026-05-07 21:30 | 38.53254 | -6.94156 | 36813 ft | 497 kts | 34° |
| 2026-05-07 21:30 | 38.56086 | -6.91576 | 37136 ft | 498 kts | 33° |
| 2026-05-07 21:31 | 38.58908 | -6.88999 | 37399 ft | 500 kts | 33° |
| 2026-05-07 21:31 | 38.61734 | -6.86422 | 37605 ft | 503 kts | 33° |
| 2026-05-07 21:31 | 38.64592 | -6.83808 | 37808 ft | 505 kts | 33° |
| 2026-05-07 21:31 | 38.67428 | -6.81212 | 37935 ft | 507 kts | 33° |
| 2026-05-07 21:32 | 38.73223 | -6.75901 | 37916 ft | 516 kts | 33° |
| 2026-05-07 21:32 | 38.79102 | -6.70509 | 37911 ft | 525 kts | 33° |
| 2026-05-07 21:33 | 38.85030 | -6.65052 | 37903 ft | 530 kts | 33° |
| 2026-05-07 21:33 | 38.91055 | -6.59497 | 37886 ft | 535 kts | 33° |
| 2026-05-07 21:34 | 38.97074 | -6.53935 | 37894 ft | 537 kts | 32° |
| 2026-05-07 21:34 | 39.03169 | -6.48291 | 37905 ft | 539 kts | 32° |
| 2026-05-07 21:35 | 39.09249 | -6.42646 | 37905 ft | 540 kts | 33° |
| 2026-05-07 21:35 | 39.15332 | -6.36991 | 37895 ft | 540 kts | 32° |
| 2026-05-07 21:36 | 39.21404 | -6.31330 | 37881 ft | 540 kts | 33° |
| 2026-05-07 21:36 | 39.27470 | -6.25666 | 37889 ft | 539 kts | 33° |
| 2026-05-07 21:37 | 39.33516 | -6.20008 | 37888 ft | 539 kts | 33° |
| 2026-05-07 21:37 | 39.39582 | -6.14316 | 37893 ft | 538 kts | 33° |
| 2026-05-07 21:38 | 39.45610 | -6.08644 | 37897 ft | 538 kts | 32° |
| 2026-05-07 21:38 | 39.51620 | -6.02983 | 37892 ft | 535 kts | 32° |
| 2026-05-07 21:39 | 39.57647 | -5.97289 | 37882 ft | 534 kts | 32° |
| 2026-05-07 21:39 | 39.63615 | -5.91644 | 37881 ft | 534 kts | 32° |
| 2026-05-07 21:40 | 39.69598 | -5.85969 | 37892 ft | 534 kts | 32° |
| 2026-05-07 21:40 | 39.75559 | -5.80300 | 37893 ft | 534 kts | 32° |
| 2026-05-07 21:41 | 39.81546 | -5.74595 | 37887 ft | 531 kts | 32° |
| 2026-05-07 21:41 | 39.87495 | -5.68917 | 37890 ft | 531 kts | 32° |
| 2026-05-07 21:42 | 39.93411 | -5.63256 | 37895 ft | 529 kts | 32° |
| 2026-05-07 21:42 | 39.99335 | -5.57576 | 37893 ft | 529 kts | 32° |
| 2026-05-07 21:43 | 40.05249 | -5.51893 | 37899 ft | 530 kts | 32° |
| 2026-05-07 21:43 | 40.11190 | -5.46167 | 37913 ft | 530 kts | 32° |
| 2026-05-07 21:44 | 40.17104 | -5.40458 | 37932 ft | 528 kts | 32° |
| 2026-05-07 21:44 | 40.22978 | -5.34775 | 37934 ft | 528 kts | 32° |
| 2026-05-07 21:45 | 40.28910 | -5.29023 | 37928 ft | 528 kts | 32° |
| 2026-05-07 21:45 | 40.34781 | -5.23319 | 37927 ft | 526 kts | 32° |
| 2026-05-07 21:46 | 40.40636 | -5.17620 | 37925 ft | 526 kts | 32° |
| 2026-05-07 21:46 | 40.46450 | -5.11942 | 37924 ft | 525 kts | 32° |
| 2026-05-07 21:47 | 40.52280 | -5.06237 | 37926 ft | 523 kts | 32° |
| 2026-05-07 21:47 | 40.58112 | -5.00521 | 37929 ft | 524 kts | 32° |
| 2026-05-07 21:48 | 40.63949 | -4.94786 | 37931 ft | 523 kts | 32° |
| 2026-05-07 21:48 | 40.69771 | -4.89053 | 37936 ft | 523 kts | 32° |
| 2026-05-07 21:49 | 40.75553 | -4.83345 | 37937 ft | 521 kts | 32° |
| 2026-05-07 21:49 | 40.81339 | -4.77620 | 37938 ft | 521 kts | 31° |
| 2026-05-07 21:50 | 40.87121 | -4.71886 | 37941 ft | 519 kts | 31° |
| 2026-05-07 21:50 | 40.92851 | -4.66196 | 37949 ft | 519 kts | 31° |
| 2026-05-07 21:51 | 40.98627 | -4.60442 | 37944 ft | 518 kts | 31° |
| 2026-05-07 21:51 | 41.04361 | -4.54720 | 37938 ft | 518 kts | 31° |
| 2026-05-07 21:52 | 41.10075 | -4.49003 | 37940 ft | 515 kts | 31° |
| 2026-05-07 21:52 | 41.15770 | -4.43294 | 37958 ft | 514 kts | 31° |
| 2026-05-07 21:53 | 41.21438 | -4.37598 | 37965 ft | 513 kts | 31° |
| 2026-05-07 21:53 | 41.27122 | -4.31874 | 37960 ft | 513 kts | 32° |
| 2026-05-07 21:54 | 41.32806 | -4.26136 | 37951 ft | 513 kts | 32° |
| 2026-05-07 21:54 | 41.38483 | -4.20392 | 37948 ft | 513 kts | 32° |
| 2026-05-07 21:55 | 41.44149 | -4.14651 | 37949 ft | 513 kts | 32° |
| 2026-05-07 21:55 | 41.49776 | -4.08933 | 37954 ft | 512 kts | 32° |
| 2026-05-07 21:56 | 41.55409 | -4.03194 | 37950 ft | 511 kts | 32° |
| 2026-05-07 21:56 | 41.61033 | -3.97455 | 37961 ft | 511 kts | 32° |
| 2026-05-07 21:57 | 41.66673 | -3.91682 | 37956 ft | 511 kts | 32° |
| 2026-05-07 21:57 | 41.72315 | -3.85901 | 37969 ft | 510 kts | 32° |
| 2026-05-07 21:58 | 41.77928 | -3.80129 | 37962 ft | 509 kts | 32° |
| 2026-05-07 21:58 | 41.83509 | -3.74383 | 37968 ft | 510 kts | 32° |
| 2026-05-07 21:59 | 41.89142 | -3.68568 | 37951 ft | 509 kts | 32° |
| 2026-05-07 21:59 | 41.94722 | -3.62792 | 37944 ft | 507 kts | 32° |
| 2026-05-07 22:00 | 42.00258 | -3.57052 | 37956 ft | 506 kts | 32° |
| 2026-05-07 22:00 | 42.05853 | -3.51240 | 37957 ft | 507 kts | 32° |
| 2026-05-07 22:01 | 42.11409 | -3.45449 | 37970 ft | 507 kts | 32° |
| 2026-05-07 22:01 | 42.16955 | -3.39656 | 37983 ft | 505 kts | 32° |
| 2026-05-07 22:02 | 42.22516 | -3.33841 | 37976 ft | 504 kts | 33° |
| 2026-05-07 22:02 | 42.28020 | -3.28065 | 37969 ft | 503 kts | 33° |
| 2026-05-07 22:03 | 42.33529 | -3.22272 | 37982 ft | 503 kts | 33° |
| 2026-05-07 22:03 | 42.39045 | -3.16461 | 37966 ft | 503 kts | 33° |
| 2026-05-07 22:04 | 42.44516 | -3.10686 | 37961 ft | 502 kts | 33° |
| 2026-05-07 22:04 | 42.50026 | -3.04850 | 37953 ft | 503 kts | 33° |
| 2026-05-07 22:05 | 42.55493 | -2.99051 | 37948 ft | 502 kts | 33° |
| 2026-05-07 22:05 | 42.61000 | -2.93194 | 37944 ft | 502 kts | 33° |
| 2026-05-07 22:06 | 42.66443 | -2.87394 | 37940 ft | 501 kts | 33° |
| 2026-05-07 22:06 | 42.71915 | -2.81549 | 37938 ft | 501 kts | 33° |
| 2026-05-07 22:07 | 42.77396 | -2.75678 | 37929 ft | 501 kts | 34° |
| 2026-05-07 22:07 | 42.82849 | -2.69827 | 37948 ft | 502 kts | 34° |
| 2026-05-07 22:08 | 42.88327 | -2.63933 | 37936 ft | 502 kts | 34° |
| 2026-05-07 22:08 | 42.93784 | -2.58049 | 37925 ft | 503 kts | 34° |
| 2026-05-07 22:09 | 42.99267 | -2.52122 | 37958 ft | 502 kts | 34° |
| 2026-05-07 22:09 | 43.04728 | -2.46208 | 37944 ft | 503 kts | 34° |
| 2026-05-07 22:10 | 43.10190 | -2.40276 | 37948 ft | 503 kts | 34° |
| 2026-05-07 22:10 | 43.15644 | -2.34339 | 37939 ft | 504 kts | 35° |
| 2026-05-07 22:11 | 43.21149 | -2.28336 | 37937 ft | 504 kts | 35° |
| 2026-05-07 22:11 | 43.26594 | -2.22378 | 37924 ft | 504 kts | 35° |
| 2026-05-07 22:12 | 43.32068 | -2.16379 | 37926 ft | 504 kts | 35° |
| 2026-05-07 22:12 | 43.37523 | -2.10386 | 37924 ft | 504 kts | 35° |
| 2026-05-07 22:13 | 43.42983 | -2.04373 | 37917 ft | 505 kts | 35° |
| 2026-05-07 22:13 | 43.48457 | -1.98330 | 37925 ft | 505 kts | 35° |
| 2026-05-07 22:14 | 43.53908 | -1.92298 | 37927 ft | 505 kts | 35° |
| 2026-05-07 22:14 | 43.59365 | -1.86244 | 37905 ft | 505 kts | 36° |
| 2026-05-07 22:15 | 43.64813 | -1.80188 | 37917 ft | 506 kts | 36° |
| 2026-05-07 22:15 | 43.70296 | -1.74076 | 37925 ft | 506 kts | 36° |
| 2026-05-07 22:16 | 43.75738 | -1.67996 | 37918 ft | 506 kts | 36° |
| 2026-05-07 22:16 | 43.81195 | -1.61885 | 37910 ft | 507 kts | 36° |
| 2026-05-07 22:17 | 43.86658 | -1.55750 | 37902 ft | 507 kts | 36° |
| 2026-05-07 22:17 | 43.92134 | -1.49587 | 37920 ft | 507 kts | 36° |
| 2026-05-07 22:18 | 44.00338 | -1.40325 | 37913 ft | 508 kts | 36° |
| 2026-05-07 22:19 | 44.05771 | -1.34174 | 37911 ft | 510 kts | 37° |
| 2026-05-07 22:19 | 44.11249 | -1.27955 | 37919 ft | 508 kts | 37° |
| 2026-05-07 22:20 | 44.16734 | -1.21712 | 37911 ft | 507 kts | 37° |
| 2026-05-07 22:20 | 44.22137 | -1.15549 | 37928 ft | 506 kts | 37° |
| 2026-05-07 22:21 | 44.27568 | -1.09338 | 37923 ft | 507 kts | 37° |
| 2026-05-07 22:21 | 44.33007 | -1.03102 | 37929 ft | 507 kts | 37° |
| 2026-05-07 22:22 | 44.38434 | -0.96866 | 37949 ft | 508 kts | 37° |
| 2026-05-07 22:22 | 44.43886 | -0.90585 | 37946 ft | 507 kts | 38° |
| 2026-05-07 22:23 | 44.49316 | -0.84314 | 37936 ft | 507 kts | 37° |
| 2026-05-07 22:23 | 44.54717 | -0.78060 | 37938 ft | 507 kts | 38° |
| 2026-05-07 22:24 | 44.60132 | -0.71774 | 37930 ft | 507 kts | 38° |
| 2026-05-07 22:24 | 44.65574 | -0.65442 | 37928 ft | 508 kts | 38° |
| 2026-05-07 22:25 | 44.70986 | -0.59128 | 37939 ft | 509 kts | 38° |
| 2026-05-07 22:25 | 44.76437 | -0.52753 | 37940 ft | 510 kts | 38° |
| 2026-05-07 22:26 | 44.81869 | -0.46383 | 37943 ft | 509 kts | 38° |
| 2026-05-07 22:26 | 44.87264 | -0.40042 | 37938 ft | 508 kts | 38° |
| 2026-05-07 22:27 | 44.92690 | -0.33649 | 37945 ft | 508 kts | 38° |
| 2026-05-07 22:27 | 44.98089 | -0.27268 | 37946 ft | 508 kts | 39° |
| 2026-05-07 22:28 | 45.03476 | -0.20888 | 37951 ft | 509 kts | 39° |
| 2026-05-07 22:28 | 45.08879 | -0.14472 | 37958 ft | 509 kts | 39° |
| 2026-05-07 22:29 | 45.14317 | -0.07999 | 37961 ft | 510 kts | 39° |
| 2026-05-07 22:29 | 45.19727 | -0.01542 | 37961 ft | 510 kts | 39° |
| 2026-05-07 22:30 | 45.25133 | 0.04929 | 37960 ft | 510 kts | 39° |
| 2026-05-07 22:30 | 45.30500 | 0.11368 | 37961 ft | 510 kts | 39° |
| 2026-05-07 22:31 | 45.35904 | 0.17868 | 37962 ft | 509 kts | 39° |
| 2026-05-07 22:31 | 45.41273 | 0.24342 | 37964 ft | 509 kts | 39° |
| 2026-05-07 22:32 | 45.46656 | 0.30852 | 37960 ft | 509 kts | 39° |
| 2026-05-07 22:32 | 45.52041 | 0.37379 | 37953 ft | 510 kts | 39° |
| 2026-05-07 22:33 | 45.57442 | 0.43944 | 37959 ft | 511 kts | 39° |
| 2026-05-07 22:33 | 45.62814 | 0.50491 | 37963 ft | 510 kts | 39° |
| 2026-05-07 22:34 | 45.68201 | 0.57073 | 37964 ft | 511 kts | 39° |
| 2026-05-07 22:34 | 45.73571 | 0.63650 | 37971 ft | 510 kts | 39° |
| 2026-05-07 22:35 | 45.78937 | 0.70242 | 37968 ft | 510 kts | 40° |
| 2026-05-07 22:35 | 45.84318 | 0.76868 | 37967 ft | 510 kts | 40° |
| 2026-05-07 22:36 | 45.89670 | 0.83475 | 37979 ft | 511 kts | 40° |
| 2026-05-07 22:36 | 45.95047 | 0.90133 | 37986 ft | 511 kts | 40° |
| 2026-05-07 22:37 | 46.00380 | 0.96754 | 37982 ft | 511 kts | 40° |
| 2026-05-07 22:37 | 46.05738 | 1.03422 | 37984 ft | 509 kts | 40° |
| 2026-05-07 22:38 | 46.11093 | 1.10104 | 37983 ft | 509 kts | 40° |
| 2026-05-07 22:38 | 46.16444 | 1.16799 | 37986 ft | 511 kts | 40° |
| 2026-05-07 22:39 | 46.21759 | 1.23469 | 37980 ft | 511 kts | 40° |
| 2026-05-07 22:39 | 46.27109 | 1.30198 | 37985 ft | 510 kts | 40° |
| 2026-05-07 22:40 | 46.32454 | 1.36940 | 37977 ft | 509 kts | 40° |
| 2026-05-07 22:40 | 46.37740 | 1.43626 | 37978 ft | 511 kts | 40° |
| 2026-05-07 22:41 | 46.43104 | 1.50427 | 37989 ft | 511 kts | 40° |
| 2026-05-07 22:41 | 46.48390 | 1.57150 | 37991 ft | 510 kts | 40° |
| 2026-05-07 22:42 | 46.53743 | 1.63975 | 37997 ft | 511 kts | 40° |
| 2026-05-07 22:42 | 46.59032 | 1.70737 | 37993 ft | 510 kts | 41° |
| 2026-05-07 22:43 | 46.64352 | 1.77556 | 37993 ft | 510 kts | 41° |
| 2026-05-07 22:43 | 46.69653 | 1.84370 | 37992 ft | 509 kts | 41° |
| 2026-05-07 22:44 | 46.74928 | 1.91171 | 37995 ft | 509 kts | 41° |
| 2026-05-07 22:44 | 46.80235 | 1.98029 | 38004 ft | 508 kts | 41° |
| 2026-05-07 22:45 | 46.85499 | 2.04852 | 37991 ft | 509 kts | 41° |
| 2026-05-07 22:45 | 46.90780 | 2.11715 | 37985 ft | 510 kts | 41° |
| 2026-05-07 22:46 | 46.96055 | 2.18590 | 37988 ft | 511 kts | 41° |
| 2026-05-07 22:46 | 47.01351 | 2.25511 | 37994 ft | 511 kts | 41° |
| 2026-05-07 22:47 | 47.06613 | 2.32405 | 37998 ft | 510 kts | 41° |
| 2026-05-07 22:47 | 47.11877 | 2.39322 | 38004 ft | 509 kts | 40° |
| 2026-05-07 22:48 | 47.17142 | 2.46260 | 38006 ft | 509 kts | 41° |
| 2026-05-07 22:48 | 47.22391 | 2.53195 | 38010 ft | 510 kts | 41° |
| 2026-05-07 22:49 | 47.27647 | 2.60159 | 38011 ft | 510 kts | 40° |
| 2026-05-07 22:49 | 47.32911 | 2.67153 | 38010 ft | 510 kts | 41° |
| 2026-05-07 22:50 | 47.38142 | 2.74124 | 38014 ft | 511 kts | 41° |
| 2026-05-07 22:50 | 47.43386 | 2.81131 | 38015 ft | 511 kts | 41° |
| 2026-05-07 22:51 | 47.48649 | 2.88182 | 38017 ft | 510 kts | 41° |
| 2026-05-07 22:51 | 47.53887 | 2.95221 | 38016 ft | 510 kts | 41° |
| 2026-05-07 22:52 | 47.59107 | 3.02254 | 38014 ft | 510 kts | 41° |
| 2026-05-07 22:52 | 47.64312 | 3.09288 | 38011 ft | 510 kts | 41° |
| 2026-05-07 22:53 | 47.69572 | 3.16417 | 38013 ft | 511 kts | 41° |
| 2026-05-07 22:53 | 47.74793 | 3.23512 | 38012 ft | 511 kts | 41° |
| 2026-05-07 22:54 | 47.80005 | 3.30615 | 38012 ft | 510 kts | 41° |
| 2026-05-07 22:54 | 47.85218 | 3.37739 | 38016 ft | 510 kts | 41° |
| 2026-05-07 22:55 | 47.90414 | 3.44862 | 38019 ft | 511 kts | 41° |
| 2026-05-07 22:55 | 47.95626 | 3.52026 | 38018 ft | 512 kts | 41° |
| 2026-05-07 22:56 | 48.00830 | 3.59200 | 38019 ft | 512 kts | 41° |
| 2026-05-07 22:56 | 48.06036 | 3.66398 | 38022 ft | 511 kts | 42° |
| 2026-05-07 22:57 | 48.11249 | 3.73626 | 38022 ft | 511 kts | 42° |
| 2026-05-07 22:57 | 48.16438 | 3.80841 | 38024 ft | 511 kts | 42° |
| 2026-05-07 22:58 | 48.21592 | 3.88028 | 38025 ft | 511 kts | 42° |
| 2026-05-07 22:58 | 48.26788 | 3.95295 | 38021 ft | 511 kts | 42° |
| 2026-05-07 22:59 | 48.31970 | 4.02565 | 38029 ft | 511 kts | 42° |
| 2026-05-07 22:59 | 48.37135 | 4.09831 | 38030 ft | 510 kts | 41° |
| 2026-05-07 23:00 | 48.42286 | 4.17099 | 38038 ft | 510 kts | 41° |
| 2026-05-07 23:00 | 48.47452 | 4.24409 | 38047 ft | 511 kts | 42° |
| 2026-05-07 23:01 | 48.52597 | 4.31710 | 38050 ft | 510 kts | 42° |
| 2026-05-07 23:01 | 48.57735 | 4.39021 | 38048 ft | 509 kts | 42° |
| 2026-05-07 23:02 | 48.62840 | 4.46308 | 38055 ft | 509 kts | 41° |
| 2026-05-07 23:02 | 48.67974 | 4.53657 | 38057 ft | 510 kts | 41° |
| 2026-05-07 23:03 | 48.73127 | 4.61049 | 38055 ft | 509 kts | 41° |
| 2026-05-07 23:03 | 48.77496 | 4.69330 | 38075 ft | 510 kts | 64° |
| 2026-05-07 23:04 | 48.80763 | 4.78804 | 38044 ft | 512 kts | 61° |
| 2026-05-07 23:04 | 48.84168 | 4.88321 | 38049 ft | 513 kts | 61° |
| 2026-05-07 23:05 | 48.87559 | 4.97807 | 38054 ft | 513 kts | 61° |